sensor_id;sensor_type;location;lat;lon;timestamp;temperature;humidity
51500;DHT22;39101;53.478;6.158;2022-11-14T00:00:20;6.90;99.90
51500;DHT22;39101;53.478;6.158;2022-11-14T00:02:46;6.90;99.90
51500;DHT22;39101;53.478;6.158;2022-11-14T00:05:12;7.10;99.90
51500;DHT22;39101;53.478;6.158;2022-11-14T00:07:37;7.00;99.90
51500;DHT22;39101;53.478;6.158;2022-11-14T00:10:03;7.10;99.90
51500;DHT22;39101;53.478;6.158;2022-11-14T00:12:29;7.10;99.90
51500;DHT22;39101;53.478;6.158;2022-11-14T00:14:55;6.90;99.90
51500;DHT22;39101;53.478;6.158;2022-11-14T00:17:20;6.90;99.90
51500;DHT22;39101;53.478;6.158;2022-11-14T00:19:46;7.00;99.90
51500;DHT22;39101;53.478;6.158;2022-11-14T00:22:12;7.10;99.90
51500;DHT22;39101;53.478;6.158;2022-11-14T00:24:37;7.00;99.90
51500;DHT22;39101;53.478;6.158;2022-11-14T00:27:03;7.00;99.90
51500;DHT22;39101;53.478;6.158;2022-11-14T00:29:28;7.10;99.90
51500;DHT22;39101;53.478;6.158;2022-11-14T00:31:54;7.00;99.90
51500;DHT22;39101;53.478;6.158;2022-11-14T00:34:20;7.10;99.90
51500;DHT22;39101;53.478;6.158;2022-11-14T00:36:45;7.10;99.90
51500;DHT22;39101;53.478;6.158;2022-11-14T00:39:12;7.10;99.90
51500;DHT22;39101;53.478;6.158;2022-11-14T00:41:39;7.10;99.90
51500;DHT22;39101;53.478;6.158;2022-11-14T00:44:05;7.20;99.90
51500;DHT22;39101;53.478;6.158;2022-11-14T00:46:31;7.00;99.90
51500;DHT22;39101;53.478;6.158;2022-11-14T00:48:56;7.00;99.90
51500;DHT22;39101;53.478;6.158;2022-11-14T00:51:22;7.10;99.90
51500;DHT22;39101;53.478;6.158;2022-11-14T00:53:47;7.10;99.90
51500;DHT22;39101;53.478;6.158;2022-11-14T00:56:13;7.00;99.90
51500;DHT22;39101;53.478;6.158;2022-11-14T00:58:39;7.10;99.90
51500;DHT22;39101;53.478;6.158;2022-11-14T01:01:04;7.20;99.90
51500;DHT22;39101;53.478;6.158;2022-11-14T01:03:30;7.20;99.90
51500;DHT22;39101;53.478;6.158;2022-11-14T01:05:56;7.30;99.90
51500;DHT22;39101;53.478;6.158;2022-11-14T01:08:22;7.20;99.90
51500;DHT22;39101;53.478;6.158;2022-11-14T01:10:49;7.30;99.90
51500;DHT22;39101;53.478;6.158;2022-11-14T01:13:17;7.20;99.90
51500;DHT22;39101;53.478;6.158;2022-11-14T01:15:45;7.20;99.90
51500;DHT22;39101;53.478;6.158;2022-11-14T01:18:14;7.30;99.90
51500;DHT22;39101;53.478;6.158;2022-11-14T01:20:41;7.30;99.90
51500;DHT22;39101;53.478;6.158;2022-11-14T01:23:08;7.30;99.90
51500;DHT22;39101;53.478;6.158;2022-11-14T01:25:36;7.40;99.90
51500;DHT22;39101;53.478;6.158;2022-11-14T01:28:08;7.20;99.90
51500;DHT22;39101;53.478;6.158;2022-11-14T01:30:34;7.30;99.90
51500;DHT22;39101;53.478;6.158;2022-11-14T01:33:00;7.30;99.90
51500;DHT22;39101;53.478;6.158;2022-11-14T01:35:26;7.40;99.90
51500;DHT22;39101;53.478;6.158;2022-11-14T01:37:52;7.30;99.90
51500;DHT22;39101;53.478;6.158;2022-11-14T01:40:17;7.40;99.90
51500;DHT22;39101;53.478;6.158;2022-11-14T01:45:57;7.20;99.90
51500;DHT22;39101;53.478;6.158;2022-11-14T01:48:29;7.30;99.90
51500;DHT22;39101;53.478;6.158;2022-11-14T01:51:00;7.40;99.90
51500;DHT22;39101;53.478;6.158;2022-11-14T01:53:27;7.30;99.90
51500;DHT22;39101;53.478;6.158;2022-11-14T01:55:56;7.30;99.90
51500;DHT22;39101;53.478;6.158;2022-11-14T01:58:22;7.30;99.90
51500;DHT22;39101;53.478;6.158;2022-11-14T02:00:48;7.30;99.90
51500;DHT22;39101;53.478;6.158;2022-11-14T02:03:15;7.40;99.90
51500;DHT22;39101;53.478;6.158;2022-11-14T02:05:41;7.20;99.90
51500;DHT22;39101;53.478;6.158;2022-11-14T02:08:11;7.30;99.90
51500;DHT22;39101;53.478;6.158;2022-11-14T02:10:38;7.30;99.90
51500;DHT22;39101;53.478;6.158;2022-11-14T02:13:03;7.20;99.90
51500;DHT22;39101;53.478;6.158;2022-11-14T02:15:29;7.20;99.90
51500;DHT22;39101;53.478;6.158;2022-11-14T02:17:55;7.20;99.90
51500;DHT22;39101;53.478;6.158;2022-11-14T02:20:21;7.20;99.90
51500;DHT22;39101;53.478;6.158;2022-11-14T02:22:47;7.20;99.90
51500;DHT22;39101;53.478;6.158;2022-11-14T02:25:15;7.30;99.90
51500;DHT22;39101;53.478;6.158;2022-11-14T02:27:42;7.20;99.90
51500;DHT22;39101;53.478;6.158;2022-11-14T02:30:15;7.20;99.90
51500;DHT22;39101;53.478;6.158;2022-11-14T02:32:41;7.20;99.90
51500;DHT22;39101;53.478;6.158;2022-11-14T02:35:07;7.10;99.90
51500;DHT22;39101;53.478;6.158;2022-11-14T02:37:33;7.20;99.90
51500;DHT22;39101;53.478;6.158;2022-11-14T02:39:58;7.20;99.90
51500;DHT22;39101;53.478;6.158;2022-11-14T02:42:24;7.20;99.90
51500;DHT22;39101;53.478;6.158;2022-11-14T02:44:49;7.30;99.90
51500;DHT22;39101;53.478;6.158;2022-11-14T02:47:15;7.20;99.90
51500;DHT22;39101;53.478;6.158;2022-11-14T02:49:41;7.10;99.90
51500;DHT22;39101;53.478;6.158;2022-11-14T02:52:06;7.40;99.90
51500;DHT22;39101;53.478;6.158;2022-11-14T02:54:32;7.20;99.90
51500;DHT22;39101;53.478;6.158;2022-11-14T02:56:58;7.00;99.90
51500;DHT22;39101;53.478;6.158;2022-11-14T02:59:23;7.00;99.90
51500;DHT22;39101;53.478;6.158;2022-11-14T03:01:49;7.10;99.90
51500;DHT22;39101;53.478;6.158;2022-11-14T03:04:14;7.00;99.90
51500;DHT22;39101;53.478;6.158;2022-11-14T03:06:40;7.00;99.90
51500;DHT22;39101;53.478;6.158;2022-11-14T03:09:06;7.00;99.90
51500;DHT22;39101;53.478;6.158;2022-11-14T03:11:31;7.00;99.90
51500;DHT22;39101;53.478;6.158;2022-11-14T03:13:58;7.10;99.90
51500;DHT22;39101;53.478;6.158;2022-11-14T03:16:24;7.10;99.90
51500;DHT22;39101;53.478;6.158;2022-11-14T03:18:50;7.10;99.90
51500;DHT22;39101;53.478;6.158;2022-11-14T03:21:20;7.00;99.90
51500;DHT22;39101;53.478;6.158;2022-11-14T03:23:46;7.10;99.90
51500;DHT22;39101;53.478;6.158;2022-11-14T03:26:13;7.10;99.90
51500;DHT22;39101;53.478;6.158;2022-11-14T03:28:39;7.10;99.90
51500;DHT22;39101;53.478;6.158;2022-11-14T03:31:07;7.10;99.90
51500;DHT22;39101;53.478;6.158;2022-11-14T03:33:33;7.20;99.90
51500;DHT22;39101;53.478;6.158;2022-11-14T03:36:00;7.30;99.90
51500;DHT22;39101;53.478;6.158;2022-11-14T03:38:25;7.20;99.90
51500;DHT22;39101;53.478;6.158;2022-11-14T03:40:51;7.20;99.90
51500;DHT22;39101;53.478;6.158;2022-11-14T03:43:18;7.10;99.90
51500;DHT22;39101;53.478;6.158;2022-11-14T03:45:45;7.20;99.90
51500;DHT22;39101;53.478;6.158;2022-11-14T03:48:11;7.10;99.90
51500;DHT22;39101;53.478;6.158;2022-11-14T03:50:37;7.30;99.90
51500;DHT22;39101;53.478;6.158;2022-11-14T03:53:03;7.20;99.90
51500;DHT22;39101;53.478;6.158;2022-11-14T03:55:29;7.20;99.90
51500;DHT22;39101;53.478;6.158;2022-11-14T03:57:54;7.20;99.90
51500;DHT22;39101;53.478;6.158;2022-11-14T04:00:20;7.30;99.90
51500;DHT22;39101;53.478;6.158;2022-11-14T04:02:46;7.20;99.90
51500;DHT22;39101;53.478;6.158;2022-11-14T04:05:12;7.20;99.90
51500;DHT22;39101;53.478;6.158;2022-11-14T04:07:38;7.20;99.90
51500;DHT22;39101;53.478;6.158;2022-11-14T04:10:04;7.10;99.90
51500;DHT22;39101;53.478;6.158;2022-11-14T04:12:30;7.20;99.90
51500;DHT22;39101;53.478;6.158;2022-11-14T04:14:56;7.30;99.90
51500;DHT22;39101;53.478;6.158;2022-11-14T04:17:22;7.20;99.90
51500;DHT22;39101;53.478;6.158;2022-11-14T04:19:48;7.20;99.90
51500;DHT22;39101;53.478;6.158;2022-11-14T04:22:14;7.30;99.90
51500;DHT22;39101;53.478;6.158;2022-11-14T04:24:40;7.10;99.90
51500;DHT22;39101;53.478;6.158;2022-11-14T04:27:06;7.20;99.90
51500;DHT22;39101;53.478;6.158;2022-11-14T04:29:31;7.20;99.90
51500;DHT22;39101;53.478;6.158;2022-11-14T04:31:57;7.30;99.90
51500;DHT22;39101;53.478;6.158;2022-11-14T04:34:23;7.20;99.90
51500;DHT22;39101;53.478;6.158;2022-11-14T04:36:48;7.10;99.90
51500;DHT22;39101;53.478;6.158;2022-11-14T04:39:17;7.10;99.90
51500;DHT22;39101;53.478;6.158;2022-11-14T04:41:43;7.00;99.90
51500;DHT22;39101;53.478;6.158;2022-11-14T04:44:09;7.10;99.90
51500;DHT22;39101;53.478;6.158;2022-11-14T04:46:34;7.20;99.90
51500;DHT22;39101;53.478;6.158;2022-11-14T04:49:00;7.10;99.90
51500;DHT22;39101;53.478;6.158;2022-11-14T04:51:26;7.10;99.90
51500;DHT22;39101;53.478;6.158;2022-11-14T04:53:52;7.10;99.90
51500;DHT22;39101;53.478;6.158;2022-11-14T04:56:17;7.00;99.90
51500;DHT22;39101;53.478;6.158;2022-11-14T04:58:43;7.10;99.90
51500;DHT22;39101;53.478;6.158;2022-11-14T05:01:09;7.00;99.90
51500;DHT22;39101;53.478;6.158;2022-11-14T05:03:35;7.00;99.90
51500;DHT22;39101;53.478;6.158;2022-11-14T05:06:01;7.00;99.90
51500;DHT22;39101;53.478;6.158;2022-11-14T05:08:28;7.00;99.90
51500;DHT22;39101;53.478;6.158;2022-11-14T05:10:53;7.20;99.90
51500;DHT22;39101;53.478;6.158;2022-11-14T05:13:19;7.00;99.90
51500;DHT22;39101;53.478;6.158;2022-11-14T05:15:45;7.20;99.90
51500;DHT22;39101;53.478;6.158;2022-11-14T05:18:10;6.90;99.90
51500;DHT22;39101;53.478;6.158;2022-11-14T05:20:36;6.90;99.90
51500;DHT22;39101;53.478;6.158;2022-11-14T05:23:02;6.90;99.90
51500;DHT22;39101;53.478;6.158;2022-11-14T05:25:28;6.90;99.90
51500;DHT22;39101;53.478;6.158;2022-11-14T05:27:53;6.90;99.90
51500;DHT22;39101;53.478;6.158;2022-11-14T05:30:19;6.90;99.90
51500;DHT22;39101;53.478;6.158;2022-11-14T05:32:45;7.20;99.90
51500;DHT22;39101;53.478;6.158;2022-11-14T05:35:10;7.00;99.90
51500;DHT22;39101;53.478;6.158;2022-11-14T05:37:36;6.80;99.90
51500;DHT22;39101;53.478;6.158;2022-11-14T05:40:03;6.90;99.90
51500;DHT22;39101;53.478;6.158;2022-11-14T05:42:29;6.80;99.90
51500;DHT22;39101;53.478;6.158;2022-11-14T05:44:55;7.10;99.90
51500;DHT22;39101;53.478;6.158;2022-11-14T05:47:20;6.80;99.90
51500;DHT22;39101;53.478;6.158;2022-11-14T05:49:46;6.90;99.90
51500;DHT22;39101;53.478;6.158;2022-11-14T05:52:12;6.80;99.90
51500;DHT22;39101;53.478;6.158;2022-11-14T05:54:37;6.90;99.90
51500;DHT22;39101;53.478;6.158;2022-11-14T05:57:03;7.00;99.90
51500;DHT22;39101;53.478;6.158;2022-11-14T05:59:36;6.80;99.90
51500;DHT22;39101;53.478;6.158;2022-11-14T06:02:02;6.90;99.90
51500;DHT22;39101;53.478;6.158;2022-11-14T06:04:27;6.90;99.90
51500;DHT22;39101;53.478;6.158;2022-11-14T06:06:53;6.80;99.90
51500;DHT22;39101;53.478;6.158;2022-11-14T06:09:20;6.90;99.90
51500;DHT22;39101;53.478;6.158;2022-11-14T06:11:46;6.90;99.90
51500;DHT22;39101;53.478;6.158;2022-11-14T06:14:12;6.80;99.90
51500;DHT22;39101;53.478;6.158;2022-11-14T06:16:37;6.80;99.90
51500;DHT22;39101;53.478;6.158;2022-11-14T06:19:04;6.80;99.90
51500;DHT22;39101;53.478;6.158;2022-11-14T06:21:30;6.90;99.90
51500;DHT22;39101;53.478;6.158;2022-11-14T06:23:56;6.80;99.90
51500;DHT22;39101;53.478;6.158;2022-11-14T06:28:52;6.70;99.90
51500;DHT22;39101;53.478;6.158;2022-11-14T06:31:19;6.60;99.90
51500;DHT22;39101;53.478;6.158;2022-11-14T06:33:45;6.60;99.90
51500;DHT22;39101;53.478;6.158;2022-11-14T06:36:12;6.80;99.90
51500;DHT22;39101;53.478;6.158;2022-11-14T06:38:38;6.60;99.90
51500;DHT22;39101;53.478;6.158;2022-11-14T06:41:09;6.60;99.90
51500;DHT22;39101;53.478;6.158;2022-11-14T06:43:40;6.70;99.90
51500;DHT22;39101;53.478;6.158;2022-11-14T06:46:09;6.60;99.90
51500;DHT22;39101;53.478;6.158;2022-11-14T06:48:35;6.50;99.90
51500;DHT22;39101;53.478;6.158;2022-11-14T06:51:01;6.70;99.90
51500;DHT22;39101;53.478;6.158;2022-11-14T06:53:29;6.70;99.90
51500;DHT22;39101;53.478;6.158;2022-11-14T06:55:57;6.60;99.90
51500;DHT22;39101;53.478;6.158;2022-11-14T06:58:32;6.50;99.90
51500;DHT22;39101;53.478;6.158;2022-11-14T07:01:18;6.50;99.90
51500;DHT22;39101;53.478;6.158;2022-11-14T07:03:45;6.50;99.90
51500;DHT22;39101;53.478;6.158;2022-11-14T07:06:13;6.40;99.90
51500;DHT22;39101;53.478;6.158;2022-11-14T07:08:39;6.40;99.90
51500;DHT22;39101;53.478;6.158;2022-11-14T07:11:15;6.50;99.90
51500;DHT22;39101;53.478;6.158;2022-11-14T07:13:55;6.40;99.90
51500;DHT22;39101;53.478;6.158;2022-11-14T07:16:27;6.70;99.90
51500;DHT22;39101;53.478;6.158;2022-11-14T07:18:55;6.30;99.90
51500;DHT22;39101;53.478;6.158;2022-11-14T07:21:20;6.40;99.90
51500;DHT22;39101;53.478;6.158;2022-11-14T07:23:46;6.50;99.90
51500;DHT22;39101;53.478;6.158;2022-11-14T07:26:12;6.30;99.90
51500;DHT22;39101;53.478;6.158;2022-11-14T07:28:42;6.50;99.90
51500;DHT22;39101;53.478;6.158;2022-11-14T07:31:10;6.30;99.90
51500;DHT22;39101;53.478;6.158;2022-11-14T07:33:37;6.40;99.90
51500;DHT22;39101;53.478;6.158;2022-11-14T07:36:03;6.20;99.90
51500;DHT22;39101;53.478;6.158;2022-11-14T07:38:30;6.30;99.90
51500;DHT22;39101;53.478;6.158;2022-11-14T07:40:58;6.30;99.90
51500;DHT22;39101;53.478;6.158;2022-11-14T07:43:24;6.40;99.90
51500;DHT22;39101;53.478;6.158;2022-11-14T07:45:50;6.40;99.90
51500;DHT22;39101;53.478;6.158;2022-11-14T07:48:16;6.30;99.90
51500;DHT22;39101;53.478;6.158;2022-11-14T07:50:42;6.40;99.90
51500;DHT22;39101;53.478;6.158;2022-11-14T07:53:08;6.20;99.90
51500;DHT22;39101;53.478;6.158;2022-11-14T07:55:35;6.30;99.90
51500;DHT22;39101;53.478;6.158;2022-11-14T07:58:01;6.40;99.90
51500;DHT22;39101;53.478;6.158;2022-11-14T08:00:27;6.40;99.90
51500;DHT22;39101;53.478;6.158;2022-11-14T08:02:52;6.40;99.90
51500;DHT22;39101;53.478;6.158;2022-11-14T08:05:19;6.30;99.90
51500;DHT22;39101;53.478;6.158;2022-11-14T08:07:44;6.30;99.90
51500;DHT22;39101;53.478;6.158;2022-11-14T08:10:10;6.20;99.90
51500;DHT22;39101;53.478;6.158;2022-11-14T08:12:37;6.40;99.90
51500;DHT22;39101;53.478;6.158;2022-11-14T08:15:08;6.20;99.90
51500;DHT22;39101;53.478;6.158;2022-11-14T08:17:34;6.40;99.90
51500;DHT22;39101;53.478;6.158;2022-11-14T08:19:59;6.30;99.90
51500;DHT22;39101;53.478;6.158;2022-11-14T08:22:25;6.40;99.90
51500;DHT22;39101;53.478;6.158;2022-11-14T08:24:51;6.40;99.90
51500;DHT22;39101;53.478;6.158;2022-11-14T08:27:17;6.40;99.90
51500;DHT22;39101;53.478;6.158;2022-11-14T08:29:43;6.40;99.90
51500;DHT22;39101;53.478;6.158;2022-11-14T08:32:09;6.40;99.90
51500;DHT22;39101;53.478;6.158;2022-11-14T08:34:34;6.50;99.90
51500;DHT22;39101;53.478;6.158;2022-11-14T08:37:02;6.40;99.90
51500;DHT22;39101;53.478;6.158;2022-11-14T08:39:28;6.60;99.90
51500;DHT22;39101;53.478;6.158;2022-11-14T08:41:54;6.40;99.90
51500;DHT22;39101;53.478;6.158;2022-11-14T08:44:20;6.40;99.90
51500;DHT22;39101;53.478;6.158;2022-11-14T08:46:45;6.40;99.90
51500;DHT22;39101;53.478;6.158;2022-11-14T08:49:11;6.40;99.90
51500;DHT22;39101;53.478;6.158;2022-11-14T08:51:37;6.50;99.90
51500;DHT22;39101;53.478;6.158;2022-11-14T08:54:02;6.50;99.90
51500;DHT22;39101;53.478;6.158;2022-11-14T08:56:28;6.60;99.90
51500;DHT22;39101;53.478;6.158;2022-11-14T08:58:54;6.50;99.90
51500;DHT22;39101;53.478;6.158;2022-11-14T09:01:19;6.80;99.90
51500;DHT22;39101;53.478;6.158;2022-11-14T09:03:45;6.50;99.90
51500;DHT22;39101;53.478;6.158;2022-11-14T09:06:10;6.50;99.90
51500;DHT22;39101;53.478;6.158;2022-11-14T09:08:36;6.50;99.90
51500;DHT22;39101;53.478;6.158;2022-11-14T09:11:02;6.60;99.90
51500;DHT22;39101;53.478;6.158;2022-11-14T09:13:31;6.60;99.90
51500;DHT22;39101;53.478;6.158;2022-11-14T09:15:58;6.50;99.90
51500;DHT22;39101;53.478;6.158;2022-11-14T09:18:23;6.50;99.90
51500;DHT22;39101;53.478;6.158;2022-11-14T09:20:49;6.60;99.90
51500;DHT22;39101;53.478;6.158;2022-11-14T09:23:15;6.60;99.90
51500;DHT22;39101;53.478;6.158;2022-11-14T09:25:40;6.60;99.90
51500;DHT22;39101;53.478;6.158;2022-11-14T09:28:06;6.50;99.90
51500;DHT22;39101;53.478;6.158;2022-11-14T09:30:34;6.60;99.90
51500;DHT22;39101;53.478;6.158;2022-11-14T09:33:04;6.60;99.90
51500;DHT22;39101;53.478;6.158;2022-11-14T09:35:30;6.60;99.90
51500;DHT22;39101;53.478;6.158;2022-11-14T09:38:04;6.60;99.90
51500;DHT22;39101;53.478;6.158;2022-11-14T09:40:56;6.70;99.90
51500;DHT22;39101;53.478;6.158;2022-11-14T09:45:51;6.70;99.90
51500;DHT22;39101;53.478;6.158;2022-11-14T09:48:21;6.80;99.90
51500;DHT22;39101;53.478;6.158;2022-11-14T09:53:35;6.80;99.90
51500;DHT22;39101;53.478;6.158;2022-11-14T09:56:04;6.70;99.90
51500;DHT22;39101;53.478;6.158;2022-11-14T09:58:30;6.70;99.90
51500;DHT22;39101;53.478;6.158;2022-11-14T10:01:02;6.70;99.90
51500;DHT22;39101;53.478;6.158;2022-11-14T10:03:48;6.70;99.90
51500;DHT22;39101;53.478;6.158;2022-11-14T10:12:10;6.70;99.90
51500;DHT22;39101;53.478;6.158;2022-11-14T10:14:56;6.90;99.90
51500;DHT22;39101;53.478;6.158;2022-11-14T10:20:33;7.00;99.90
51500;DHT22;39101;53.478;6.158;2022-11-14T10:31:34;7.10;99.90
51500;DHT22;39101;53.478;6.158;2022-11-14T10:34:12;7.30;99.90
51500;DHT22;39101;53.478;6.158;2022-11-14T10:41:56;7.40;99.90
51500;DHT22;39101;53.478;6.158;2022-11-14T10:44:33;7.50;99.90
51500;DHT22;39101;53.478;6.158;2022-11-14T10:47:03;7.40;99.90
51500;DHT22;39101;53.478;6.158;2022-11-14T10:49:33;7.40;99.90
51500;DHT22;39101;53.478;6.158;2022-11-14T10:52:08;7.40;99.90
51500;DHT22;39101;53.478;6.158;2022-11-14T10:57:17;7.50;99.90
51500;DHT22;39101;53.478;6.158;2022-11-14T10:59:43;7.60;99.90
51500;DHT22;39101;53.478;6.158;2022-11-14T11:02:11;7.80;99.90
51500;DHT22;39101;53.478;6.158;2022-11-14T11:04:38;7.50;99.90
51500;DHT22;39101;53.478;6.158;2022-11-14T11:09:35;7.50;99.90
51500;DHT22;39101;53.478;6.158;2022-11-14T11:12:45;7.50;99.90
51500;DHT22;39101;53.478;6.158;2022-11-14T11:15:27;7.60;99.90
51500;DHT22;39101;53.478;6.158;2022-11-14T11:17:57;7.60;99.90
51500;DHT22;39101;53.478;6.158;2022-11-14T11:20:38;7.50;99.90
51500;DHT22;39101;53.478;6.158;2022-11-14T11:25:35;7.50;99.90
51500;DHT22;39101;53.478;6.158;2022-11-14T11:28:11;7.50;99.90
51500;DHT22;39101;53.478;6.158;2022-11-14T11:30:37;7.50;99.90
51500;DHT22;39101;53.478;6.158;2022-11-14T11:33:25;7.50;99.90
51500;DHT22;39101;53.478;6.158;2022-11-14T11:35:55;7.50;99.90
51500;DHT22;39101;53.478;6.158;2022-11-14T11:38:25;7.60;99.90
51500;DHT22;39101;53.478;6.158;2022-11-14T11:43:59;7.60;99.90
51500;DHT22;39101;53.478;6.158;2022-11-14T11:52:04;7.60;99.90
51500;DHT22;39101;53.478;6.158;2022-11-14T11:54:45;7.60;99.90
51500;DHT22;39101;53.478;6.158;2022-11-14T11:57:17;7.60;99.90
51500;DHT22;39101;53.478;6.158;2022-11-14T11:59:46;7.70;99.90
51500;DHT22;39101;53.478;6.158;2022-11-14T12:02:22;7.60;99.90
51500;DHT22;39101;53.478;6.158;2022-11-14T12:04:50;7.70;99.90
51500;DHT22;39101;53.478;6.158;2022-11-14T12:07:22;7.60;99.90
51500;DHT22;39101;53.478;6.158;2022-11-14T12:09:50;7.60;99.90
51500;DHT22;39101;53.478;6.158;2022-11-14T12:18:14;7.70;99.90
51500;DHT22;39101;53.478;6.158;2022-11-14T12:29:22;7.90;99.90
51500;DHT22;39101;53.478;6.158;2022-11-14T12:31:58;7.90;99.90
51500;DHT22;39101;53.478;6.158;2022-11-14T12:34:33;7.80;99.90
51500;DHT22;39101;53.478;6.158;2022-11-14T12:37:08;7.90;99.90
51500;DHT22;39101;53.478;6.158;2022-11-14T12:39:35;7.80;99.90
51500;DHT22;39101;53.478;6.158;2022-11-14T12:42:06;7.90;99.90
51500;DHT22;39101;53.478;6.158;2022-11-14T12:44:36;8.00;99.90
51500;DHT22;39101;53.478;6.158;2022-11-14T12:49:55;8.20;99.90
51500;DHT22;39101;53.478;6.158;2022-11-14T13:00:27;8.50;99.90
51500;DHT22;39101;53.478;6.158;2022-11-14T13:08:51;8.60;99.90
51500;DHT22;39101;53.478;6.158;2022-11-14T13:11:48;8.60;99.90
51500;DHT22;39101;53.478;6.158;2022-11-14T13:14:52;8.60;99.90
51500;DHT22;39101;53.478;6.158;2022-11-14T13:17:37;8.70;99.90
51500;DHT22;39101;53.478;6.158;2022-11-14T13:20:33;8.70;99.90
51500;DHT22;39101;53.478;6.158;2022-11-14T13:33:42;8.40;99.90
51500;DHT22;39101;53.478;6.158;2022-11-14T13:36:28;8.40;99.90
51500;DHT22;39101;53.478;6.158;2022-11-14T13:39:29;8.40;99.90
51500;DHT22;39101;53.478;6.158;2022-11-14T13:45:34;8.30;99.90
51500;DHT22;39101;53.478;6.158;2022-11-14T13:48:21;8.20;99.90
51500;DHT22;39101;53.478;6.158;2022-11-14T13:50:54;8.20;99.90
51500;DHT22;39101;53.478;6.158;2022-11-14T13:53:23;8.20;99.90
51500;DHT22;39101;53.478;6.158;2022-11-14T13:56:11;8.10;99.90
51500;DHT22;39101;53.478;6.158;2022-11-14T13:59:00;8.10;99.90
51500;DHT22;39101;53.478;6.158;2022-11-14T14:04:29;8.20;99.90
51500;DHT22;39101;53.478;6.158;2022-11-14T14:09:54;8.30;99.90
51500;DHT22;39101;53.478;6.158;2022-11-14T14:15:17;8.30;99.90
51500;DHT22;39101;53.478;6.158;2022-11-14T14:20:53;8.30;99.90
51500;DHT22;39101;53.478;6.158;2022-11-14T14:26:29;8.20;99.90
51500;DHT22;39101;53.478;6.158;2022-11-14T14:31:42;8.30;99.90
51500;DHT22;39101;53.478;6.158;2022-11-14T14:34:28;8.30;99.90
51500;DHT22;39101;53.478;6.158;2022-11-14T14:36:56;8.30;99.90
51500;DHT22;39101;53.478;6.158;2022-11-14T14:39:23;8.30;99.90
51500;DHT22;39101;53.478;6.158;2022-11-14T14:41:50;8.20;99.90
51500;DHT22;39101;53.478;6.158;2022-11-14T14:44:36;8.30;99.90
51500;DHT22;39101;53.478;6.158;2022-11-14T14:49:58;8.20;99.90
51500;DHT22;39101;53.478;6.158;2022-11-14T14:52:33;8.20;99.90
51500;DHT22;39101;53.478;6.158;2022-11-14T14:55:01;8.20;99.90
51500;DHT22;39101;53.478;6.158;2022-11-14T14:57:28;8.10;99.90
51500;DHT22;39101;53.478;6.158;2022-11-14T15:02:28;8.10;99.90
51500;DHT22;39101;53.478;6.158;2022-11-14T15:04:56;8.10;99.90
51500;DHT22;39101;53.478;6.158;2022-11-14T15:07:25;8.10;99.90
51500;DHT22;39101;53.478;6.158;2022-11-14T15:09:56;8.10;99.90
51500;DHT22;39101;53.478;6.158;2022-11-14T15:12:24;8.10;99.90
51500;DHT22;39101;53.478;6.158;2022-11-14T15:14:52;8.00;99.90
51500;DHT22;39101;53.478;6.158;2022-11-14T15:17:18;8.10;99.90
51500;DHT22;39101;53.478;6.158;2022-11-14T15:19:45;7.90;99.90
51500;DHT22;39101;53.478;6.158;2022-11-14T15:24:39;7.90;99.90
51500;DHT22;39101;53.478;6.158;2022-11-14T15:29:50;7.80;99.90
51500;DHT22;39101;53.478;6.158;2022-11-14T15:32:23;7.90;99.90
51500;DHT22;39101;53.478;6.158;2022-11-14T15:40:30;7.70;99.90
51500;DHT22;39101;53.478;6.158;2022-11-14T15:42:56;7.70;99.90
51500;DHT22;39101;53.478;6.158;2022-11-14T15:45:37;7.60;99.90
51500;DHT22;39101;53.478;6.158;2022-11-14T15:48:11;7.70;99.90
51500;DHT22;39101;53.478;6.158;2022-11-14T15:50:38;7.60;99.90
51500;DHT22;39101;53.478;6.158;2022-11-14T15:53:21;7.60;99.90
51500;DHT22;39101;53.478;6.158;2022-11-14T15:55:48;7.60;99.90
51500;DHT22;39101;53.478;6.158;2022-11-14T15:58:14;7.50;99.90
51500;DHT22;39101;53.478;6.158;2022-11-14T16:00:48;7.60;99.90
51500;DHT22;39101;53.478;6.158;2022-11-14T16:03:17;7.50;99.90
51500;DHT22;39101;53.478;6.158;2022-11-14T16:05:43;7.50;99.90
51500;DHT22;39101;53.478;6.158;2022-11-14T16:08:11;7.50;99.90
51500;DHT22;39101;53.478;6.158;2022-11-14T16:10:37;7.40;99.90
51500;DHT22;39101;53.478;6.158;2022-11-14T16:13:03;7.50;99.90
51500;DHT22;39101;53.478;6.158;2022-11-14T16:15:29;7.40;99.90
51500;DHT22;39101;53.478;6.158;2022-11-14T16:17:54;7.60;99.90
51500;DHT22;39101;53.478;6.158;2022-11-14T16:20:26;7.40;99.90
51500;DHT22;39101;53.478;6.158;2022-11-14T16:22:53;7.50;99.90
51500;DHT22;39101;53.478;6.158;2022-11-14T16:25:22;7.50;99.90
51500;DHT22;39101;53.478;6.158;2022-11-14T16:27:48;7.60;99.90
51500;DHT22;39101;53.478;6.158;2022-11-14T16:30:16;7.60;99.90
51500;DHT22;39101;53.478;6.158;2022-11-14T16:32:44;7.60;99.90
51500;DHT22;39101;53.478;6.158;2022-11-14T16:35:15;7.60;99.90
51500;DHT22;39101;53.478;6.158;2022-11-14T16:37:42;7.70;99.90
51500;DHT22;39101;53.478;6.158;2022-11-14T16:40:14;7.60;99.90
51500;DHT22;39101;53.478;6.158;2022-11-14T16:42:40;7.70;99.90
51500;DHT22;39101;53.478;6.158;2022-11-14T16:45:06;7.60;99.90
51500;DHT22;39101;53.478;6.158;2022-11-14T16:47:32;7.60;99.90
51500;DHT22;39101;53.478;6.158;2022-11-14T16:49:58;7.60;99.90
51500;DHT22;39101;53.478;6.158;2022-11-14T16:52:24;7.70;99.90
51500;DHT22;39101;53.478;6.158;2022-11-14T16:54:50;7.60;99.90
51500;DHT22;39101;53.478;6.158;2022-11-14T16:57:15;7.70;99.90
51500;DHT22;39101;53.478;6.158;2022-11-14T16:59:41;7.70;99.90
51500;DHT22;39101;53.478;6.158;2022-11-14T17:02:15;7.80;99.90
51500;DHT22;39101;53.478;6.158;2022-11-14T17:04:42;7.70;99.90
51500;DHT22;39101;53.478;6.158;2022-11-14T17:07:12;7.70;99.90
51500;DHT22;39101;53.478;6.158;2022-11-14T17:09:37;7.80;99.90
51500;DHT22;39101;53.478;6.158;2022-11-14T17:12:04;7.70;99.90
51500;DHT22;39101;53.478;6.158;2022-11-14T17:14:30;7.70;99.90
51500;DHT22;39101;53.478;6.158;2022-11-14T17:16:56;7.70;99.90
51500;DHT22;39101;53.478;6.158;2022-11-14T17:19:22;7.80;99.90
51500;DHT22;39101;53.478;6.158;2022-11-14T17:21:48;7.80;99.90
51500;DHT22;39101;53.478;6.158;2022-11-14T17:24:13;7.70;99.90
51500;DHT22;39101;53.478;6.158;2022-11-14T17:26:39;7.70;99.90
51500;DHT22;39101;53.478;6.158;2022-11-14T17:29:05;7.70;99.90
51500;DHT22;39101;53.478;6.158;2022-11-14T17:31:32;7.80;99.90
51500;DHT22;39101;53.478;6.158;2022-11-14T17:33:58;7.60;99.90
51500;DHT22;39101;53.478;6.158;2022-11-14T17:36:26;7.70;99.90
51500;DHT22;39101;53.478;6.158;2022-11-14T17:38:52;7.70;99.90
51500;DHT22;39101;53.478;6.158;2022-11-14T17:41:18;7.60;99.90
51500;DHT22;39101;53.478;6.158;2022-11-14T17:43:44;7.50;99.90
51500;DHT22;39101;53.478;6.158;2022-11-14T17:46:10;7.50;99.90
51500;DHT22;39101;53.478;6.158;2022-11-14T17:48:37;7.60;99.90
51500;DHT22;39101;53.478;6.158;2022-11-14T17:51:09;7.60;99.90
51500;DHT22;39101;53.478;6.158;2022-11-14T17:53:35;7.50;99.90
51500;DHT22;39101;53.478;6.158;2022-11-14T17:56:01;7.60;99.90
51500;DHT22;39101;53.478;6.158;2022-11-14T17:58:28;7.60;99.90
51500;DHT22;39101;53.478;6.158;2022-11-14T18:00:54;7.50;99.90